sensor_id;sensor_type;location;lat;lon;timestamp;pressure;altitude;pressure_sealevel;temperature;humidity
71601;BME280;59446;52.192;4.628;2022-09-09T00:00:20;100750.81;;;22.92;54.65
71601;BME280;59446;52.192;4.628;2022-09-09T00:03:05;100740.19;;;22.92;54.26
71601;BME280;59446;52.192;4.628;2022-09-09T00:08:26;100747.31;;;22.91;54.05
71601;BME280;59446;52.192;4.628;2022-09-09T00:10:58;100744.78;;;22.90;54.27
71601;BME280;59446;52.192;4.628;2022-09-09T00:13:48;100741.88;;;22.93;53.94
71601;BME280;59446;52.192;4.628;2022-09-09T00:16:19;100743.06;;;22.89;54.05
71601;BME280;59446;52.192;4.628;2022-09-09T00:19:02;100735.38;;;22.86;54.25
71601;BME280;59446;52.192;4.628;2022-09-09T00:21:37;100742.13;;;22.90;54.35
71601;BME280;59446;52.192;4.628;2022-09-09T00:24:43;100734.41;;;22.87;54.24
71601;BME280;59446;52.192;4.628;2022-09-09T00:27:32;100738.16;;;22.84;54.25
71601;BME280;59446;52.192;4.628;2022-09-09T00:32:39;100734.66;;;22.84;54.37
71601;BME280;59446;52.192;4.628;2022-09-09T00:37:47;100740.22;;;22.81;54.37
71601;BME280;59446;52.192;4.628;2022-09-09T00:40:35;100732.25;;;22.81;54.35
71601;BME280;59446;52.192;4.628;2022-09-09T00:46:10;100729.00;;;22.77;54.43
71601;BME280;59446;52.192;4.628;2022-09-09T00:48:50;100734.44;;;22.76;54.40
71601;BME280;59446;52.192;4.628;2022-09-09T00:54:25;100728.28;;;22.75;54.53
71601;BME280;59446;52.192;4.628;2022-09-09T00:59:47;100730.22;;;22.73;54.56
71601;BME280;59446;52.192;4.628;2022-09-09T01:02:28;100725.88;;;22.72;54.53
71601;BME280;59446;52.192;4.628;2022-09-09T01:05:02;100731.91;;;22.74;54.32
71601;BME280;59446;52.192;4.628;2022-09-09T01:07:30;100726.47;;;22.76;54.45
71601;BME280;59446;52.192;4.628;2022-09-09T01:09:59;100727.44;;;22.74;54.21
71601;BME280;59446;52.192;4.628;2022-09-09T01:15:03;100726.84;;;22.71;54.48
71601;BME280;59446;52.192;4.628;2022-09-09T01:20:29;100714.03;;;22.76;54.23
71601;BME280;59446;52.192;4.628;2022-09-09T01:26:18;100718.63;;;22.74;54.31
71601;BME280;59446;52.192;4.628;2022-09-09T01:28:47;100722.38;;;22.71;54.34
71601;BME280;59446;52.192;4.628;2022-09-09T01:31:27;100710.69;;;22.74;54.40
71601;BME280;59446;52.192;4.628;2022-09-09T01:33:53;100705.50;;;22.72;54.21
71601;BME280;59446;52.192;4.628;2022-09-09T01:36:42;100709.97;;;22.72;54.34
71601;BME280;59446;52.192;4.628;2022-09-09T01:39:09;100698.97;;;22.65;54.41
71601;BME280;59446;52.192;4.628;2022-09-09T01:41:35;100699.81;;;22.66;54.52
71601;BME280;59446;52.192;4.628;2022-09-09T01:44:01;100702.84;;;22.72;54.25
71601;BME280;59446;52.192;4.628;2022-09-09T01:46:27;100702.25;;;22.69;54.28
71601;BME280;59446;52.192;4.628;2022-09-09T01:48:56;100700.78;;;22.65;54.37
71601;BME280;59446;52.192;4.628;2022-09-09T01:51:22;100704.06;;;22.68;54.30
71601;BME280;59446;52.192;4.628;2022-09-09T01:53:48;100704.06;;;22.68;54.13
71601;BME280;59446;52.192;4.628;2022-09-09T02:02:17;100687.50;;;22.65;54.44
71601;BME280;59446;52.192;4.628;2022-09-09T02:04:47;100697.66;;;22.60;54.42
71601;BME280;59446;52.192;4.628;2022-09-09T02:09:47;100696.31;;;22.65;54.30
71601;BME280;59446;52.192;4.628;2022-09-09T02:12:18;100693.31;;;22.70;54.14
71601;BME280;59446;52.192;4.628;2022-09-09T02:14:55;100691.38;;;22.72;54.14
71601;BME280;59446;52.192;4.628;2022-09-09T02:17:28;100683.53;;;22.70;53.75
71601;BME280;59446;52.192;4.628;2022-09-09T02:20:02;100679.06;;;22.71;54.04
71601;BME280;59446;52.192;4.628;2022-09-09T02:22:31;100684.72;;;22.66;54.21
71601;BME280;59446;52.192;4.628;2022-09-09T02:25:00;100677.66;;;22.67;54.30
71601;BME280;59446;52.192;4.628;2022-09-09T02:27:25;100679.56;;;22.65;54.33
71601;BME280;59446;52.192;4.628;2022-09-09T02:29:52;100679.41;;;22.66;54.24
71601;BME280;59446;52.192;4.628;2022-09-09T02:32:22;100674.88;;;22.68;54.46
71601;BME280;59446;52.192;4.628;2022-09-09T02:34:51;100680.41;;;22.65;54.23
71601;BME280;59446;52.192;4.628;2022-09-09T02:37:20;100669.06;;;22.63;54.18
71601;BME280;59446;52.192;4.628;2022-09-09T02:39:47;100664.00;;;22.60;54.28
71601;BME280;59446;52.192;4.628;2022-09-09T02:42:13;100657.84;;;22.60;54.37
71601;BME280;59446;52.192;4.628;2022-09-09T02:44:40;100660.38;;;22.61;54.21
71601;BME280;59446;52.192;4.628;2022-09-09T02:47:16;100662.06;;;22.62;54.03
71601;BME280;59446;52.192;4.628;2022-09-09T02:50:12;100657.47;;;22.64;54.12
71601;BME280;59446;52.192;4.628;2022-09-09T02:53:16;100657.59;;;22.63;54.15
71601;BME280;59446;52.192;4.628;2022-09-09T02:55:46;100655.78;;;22.63;54.15
71601;BME280;59446;52.192;4.628;2022-09-09T02:58:15;100658.44;;;22.63;54.15
71601;BME280;59446;52.192;4.628;2022-09-09T03:00:46;100663.75;;;22.63;54.24
71601;BME280;59446;52.192;4.628;2022-09-09T03:03:12;100661.09;;;22.63;53.87
71601;BME280;59446;52.192;4.628;2022-09-09T03:05:37;100658.69;;;22.60;53.90
71601;BME280;59446;52.192;4.628;2022-09-09T03:08:04;100651.00;;;22.57;54.12
71601;BME280;59446;52.192;4.628;2022-09-09T03:10:33;100659.09;;;22.56;54.16
71601;BME280;59446;52.192;4.628;2022-09-09T03:13:00;100648.22;;;22.59;54.08
71601;BME280;59446;52.192;4.628;2022-09-09T03:15:25;100657.13;;;22.58;54.38
71601;BME280;59446;52.192;4.628;2022-09-09T03:17:55;100651.72;;;22.59;53.91
71601;BME280;59446;52.192;4.628;2022-09-09T03:20:25;100646.53;;;22.58;54.12
71601;BME280;59446;52.192;4.628;2022-09-09T03:22:55;100647.88;;;22.52;54.25
71601;BME280;59446;52.192;4.628;2022-09-09T03:25:21;100645.09;;;22.54;54.18
71601;BME280;59446;52.192;4.628;2022-09-09T03:27:49;100647.63;;;22.55;54.24
71601;BME280;59446;52.192;4.628;2022-09-09T03:30:15;100647.50;;;22.57;54.22
71601;BME280;59446;52.192;4.628;2022-09-09T03:32:41;100644.00;;;22.56;54.25
71601;BME280;59446;52.192;4.628;2022-09-09T03:35:07;100642.31;;;22.55;54.16
71601;BME280;59446;52.192;4.628;2022-09-09T03:37:32;100637.97;;;22.54;54.09
71601;BME280;59446;52.192;4.628;2022-09-09T03:39:58;100642.69;;;22.51;54.25
71601;BME280;59446;52.192;4.628;2022-09-09T03:42:25;100636.41;;;22.52;54.21
71601;BME280;59446;52.192;4.628;2022-09-09T03:44:50;100637.25;;;22.52;54.35
71601;BME280;59446;52.192;4.628;2022-09-09T03:47:20;100632.22;;;22.49;54.13
71601;BME280;59446;52.192;4.628;2022-09-09T03:49:47;100636.41;;;22.52;54.17
71601;BME280;59446;52.192;4.628;2022-09-09T03:52:13;100636.53;;;22.50;54.33
71601;BME280;59446;52.192;4.628;2022-09-09T03:54:39;100636.53;;;22.50;54.09
71601;BME280;59446;52.192;4.628;2022-09-09T03:57:04;100630.53;;;22.48;54.06
71601;BME280;59446;52.192;4.628;2022-09-09T03:59:30;100634.72;;;22.51;54.20
71601;BME280;59446;52.192;4.628;2022-09-09T04:01:56;100635.84;;;22.48;54.12
71601;BME280;59446;52.192;4.628;2022-09-09T04:04:22;100630.41;;;22.50;54.25
71601;BME280;59446;52.192;4.628;2022-09-09T04:06:48;100630.53;;;22.48;54.01
71601;BME280;59446;52.192;4.628;2022-09-09T04:09:14;100630.78;;;22.45;54.10
71601;BME280;59446;52.192;4.628;2022-09-09T04:11:39;100631.38;;;22.37;54.38
71601;BME280;59446;52.192;4.628;2022-09-09T04:14:04;100623.88;;;22.42;54.26
71601;BME280;59446;52.192;4.628;2022-09-09T04:16:32;100626.66;;;22.41;54.19
71601;BME280;59446;52.192;4.628;2022-09-09T04:18:58;100624.72;;;22.43;54.71
71601;BME280;59446;52.192;4.628;2022-09-09T04:21:25;100615.34;;;22.39;54.15
71601;BME280;59446;52.192;4.628;2022-09-09T04:23:50;100612.56;;;22.40;54.34
71601;BME280;59446;52.192;4.628;2022-09-09T04:26:16;100616.91;;;22.41;54.17
71601;BME280;59446;52.192;4.628;2022-09-09T04:28:42;100606.41;;;22.40;54.22
71601;BME280;59446;52.192;4.628;2022-09-09T04:31:10;100607.38;;;22.39;54.29
71601;BME280;59446;52.192;4.628;2022-09-09T04:33:36;100613.53;;;22.39;54.26
71601;BME280;59446;52.192;4.628;2022-09-09T04:36:02;100612.69;;;22.39;54.27
71601;BME280;59446;52.192;4.628;2022-09-09T04:38:27;100607.38;;;22.39;54.28
71601;BME280;59446;52.192;4.628;2022-09-09T04:40:54;100609.06;;;22.40;54.13
71601;BME280;59446;52.192;4.628;2022-09-09T04:43:20;100610.16;;;22.37;54.13
71601;BME280;59446;52.192;4.628;2022-09-09T04:45:48;100609.31;;;22.37;54.11
71601;BME280;59446;52.192;4.628;2022-09-09T04:48:14;100600.63;;;22.35;54.19
71601;BME280;59446;52.192;4.628;2022-09-09T04:50:40;100609.56;;;22.34;54.24
71601;BME280;59446;52.192;4.628;2022-09-09T04:53:06;100601.59;;;22.34;54.31
71601;BME280;59446;52.192;4.628;2022-09-09T04:55:33;100606.91;;;22.34;54.29
71601;BME280;59446;52.192;4.628;2022-09-09T04:58:07;100604.38;;;22.32;54.32
71601;BME280;59446;52.192;4.628;2022-09-09T05:00:34;100600.78;;;22.33;54.16
71601;BME280;59446;52.192;4.628;2022-09-09T05:03:05;100598.97;;;22.34;54.26
71601;BME280;59446;52.192;4.628;2022-09-09T05:05:31;100595.47;;;22.33;54.19
71601;BME280;59446;52.192;4.628;2022-09-09T05:08:06;100598.25;;;22.32;54.28
71601;BME280;59446;52.192;4.628;2022-09-09T05:10:33;100597.41;;;22.31;54.15
71601;BME280;59446;52.192;4.628;2022-09-09T05:12:59;100595.72;;;22.30;54.38
71601;BME280;59446;52.192;4.628;2022-09-09T05:15:24;100590.41;;;22.30;54.33
71601;BME280;59446;52.192;4.628;2022-09-09T05:17:49;100595.59;;;22.32;54.36
71601;BME280;59446;52.192;4.628;2022-09-09T05:20:17;100593.19;;;22.29;54.42
71601;BME280;59446;52.192;4.628;2022-09-09T05:22:43;100599.56;;;22.26;54.46
71601;BME280;59446;52.192;4.628;2022-09-09T05:25:09;100595.09;;;22.27;54.33
71601;BME280;59446;52.192;4.628;2022-09-09T05:27:34;100597.75;;;22.27;54.30
71601;BME280;59446;52.192;4.628;2022-09-09T05:30:00;100595.94;;;22.27;54.43
71601;BME280;59446;52.192;4.628;2022-09-09T05:32:25;100593.41;;;22.26;54.31
71601;BME280;59446;52.192;4.628;2022-09-09T05:34:51;100599.44;;;22.28;53.85
71601;BME280;59446;52.192;4.628;2022-09-09T05:37:17;100595.00;;;22.28;54.21
71601;BME280;59446;52.192;4.628;2022-09-09T05:39:43;100597.75;;;22.27;54.31
71601;BME280;59446;52.192;4.628;2022-09-09T05:42:09;100593.28;;;22.27;54.45
71601;BME280;59446;52.192;4.628;2022-09-09T05:44:35;100587.03;;;22.28;54.03
71601;BME280;59446;52.192;4.628;2022-09-09T05:47:00;100586.16;;;22.28;54.23
71601;BME280;59446;52.192;4.628;2022-09-09T05:49:25;100581.72;;;22.28;53.71
71601;BME280;59446;52.192;4.628;2022-09-09T05:51:51;100590.63;;;22.27;53.92
71601;BME280;59446;52.192;4.628;2022-09-09T05:54:17;100586.16;;;22.28;54.32
71601;BME280;59446;52.192;4.628;2022-09-09T05:56:42;100593.19;;;22.29;53.95
71601;BME280;59446;52.192;4.628;2022-09-09T05:59:08;100601.03;;;22.30;54.38
71601;BME280;59446;52.192;4.628;2022-09-09T06:01:35;100592.22;;;22.30;54.02
71601;BME280;59446;52.192;4.628;2022-09-09T06:04:02;100596.91;;;22.26;54.10
71601;BME280;59446;52.192;4.628;2022-09-09T06:06:31;100599.44;;;22.28;54.13
71601;BME280;59446;52.192;4.628;2022-09-09T06:09:00;100598.97;;;22.34;53.91
71601;BME280;59446;52.192;4.628;2022-09-09T06:11:29;100592.81;;;22.33;53.85
71601;BME280;59446;52.192;4.628;2022-09-09T06:13:56;100600.63;;;22.35;53.67
71601;BME280;59446;52.192;4.628;2022-09-09T06:16:25;100607.38;;;22.39;53.55
71601;BME280;59446;52.192;4.628;2022-09-09T06:18:52;100598.69;;;22.37;54.01
71601;BME280;59446;52.192;4.628;2022-09-09T06:21:30;100600.13;;;22.41;53.49
71601;BME280;59446;52.192;4.628;2022-09-09T06:23:56;100601.94;;;22.40;53.64
71601;BME280;59446;52.192;4.628;2022-09-09T06:26:24;100606.41;;;22.40;53.63
71601;BME280;59446;52.192;4.628;2022-09-09T06:28:51;100607.25;;;22.40;53.42
71601;BME280;59446;52.192;4.628;2022-09-09T06:31:19;100605.69;;;22.38;53.51
71601;BME280;59446;52.192;4.628;2022-09-09T06:33:51;100600.38;;;22.38;53.50
71601;BME280;59446;52.192;4.628;2022-09-09T06:36:19;100607.50;;;22.37;53.70
71601;BME280;59446;52.192;4.628;2022-09-09T06:38:45;100609.31;;;22.37;53.46
71601;BME280;59446;52.192;4.628;2022-09-09T06:41:13;100607.63;;;22.36;53.53
71601;BME280;59446;52.192;4.628;2022-09-09T06:43:39;100608.72;;;22.33;53.54
71601;BME280;59446;52.192;4.628;2022-09-09T06:46:15;100607.88;;;22.33;53.51
71601;BME280;59446;52.192;4.628;2022-09-09T06:48:41;100610.66;;;22.31;53.66
71601;BME280;59446;52.192;4.628;2022-09-09T06:51:15;100606.31;;;22.30;53.58
71601;BME280;59446;52.192;4.628;2022-09-09T06:53:42;100612.59;;;22.29;53.92
71601;BME280;59446;52.192;4.628;2022-09-09T06:56:18;100609.09;;;22.29;53.91
71601;BME280;59446;52.192;4.628;2022-09-09T06:58:44;100610.03;;;22.28;53.95
71601;BME280;59446;52.192;4.628;2022-09-09T07:01:12;100611.63;;;22.30;53.78
71601;BME280;59446;52.192;4.628;2022-09-09T07:03:38;100611.75;;;22.29;54.00
71601;BME280;59446;52.192;4.628;2022-09-09T07:06:05;100612.69;;;22.28;53.72
71601;BME280;59446;52.192;4.628;2022-09-09T07:08:31;100605.47;;;22.30;53.98
71601;BME280;59446;52.192;4.628;2022-09-09T07:11:04;100610.78;;;22.30;53.88
71601;BME280;59446;52.192;4.628;2022-09-09T07:13:30;100609.09;;;22.29;53.90
71601;BME280;59446;52.192;4.628;2022-09-09T07:16:06;100605.97;;;22.24;54.09
71601;BME280;59446;52.192;4.628;2022-09-09T07:18:32;100607.66;;;22.25;54.17
71601;BME280;59446;52.192;4.628;2022-09-09T07:20:58;100612.94;;;22.25;54.28
71601;BME280;59446;52.192;4.628;2022-09-09T07:23:24;100611.00;;;22.27;54.08
71601;BME280;59446;52.192;4.628;2022-09-09T07:25:50;100607.66;;;22.25;54.02
71601;BME280;59446;52.192;4.628;2022-09-09T07:28:16;100611.00;;;22.27;54.15
71601;BME280;59446;52.192;4.628;2022-09-09T07:30:42;100604.63;;;22.29;54.15
71601;BME280;59446;52.192;4.628;2022-09-09T07:33:08;100605.00;;;22.25;54.37
71601;BME280;59446;52.192;4.628;2022-09-09T07:35:35;100607.66;;;22.25;54.32
71601;BME280;59446;52.192;4.628;2022-09-09T07:38:04;100603.81;;;22.29;54.47
71601;BME280;59446;52.192;4.628;2022-09-09T07:40:33;100610.75;;;22.41;53.99
71601;BME280;59446;52.192;4.628;2022-09-09T07:42:59;100602.91;;;22.39;54.28
71601;BME280;59446;52.192;4.628;2022-09-09T07:45:26;100613.41;;;22.41;54.21
71601;BME280;59446;52.192;4.628;2022-09-09T07:47:53;100613.66;;;22.38;54.46
71601;BME280;59446;52.192;4.628;2022-09-09T07:50:18;100604.72;;;22.39;54.21
71601;BME280;59446;52.192;4.628;2022-09-09T07:52:44;100609.56;;;22.45;54.19
71601;BME280;59446;52.192;4.628;2022-09-09T07:55:09;100619.19;;;22.46;54.18
71601;BME280;59446;52.192;4.628;2022-09-09T07:57:35;100614.00;;;22.45;54.42
71601;BME280;59446;52.192;4.628;2022-09-09T08:00:03;100612.28;;;22.43;54.42
71601;BME280;59446;52.192;4.628;2022-09-09T08:02:29;100609.06;;;22.40;54.41
71601;BME280;59446;52.192;4.628;2022-09-09T08:04:55;100609.91;;;22.40;54.42
71601;BME280;59446;52.192;4.628;2022-09-09T08:07:21;100612.94;;;22.36;54.51
71601;BME280;59446;52.192;4.628;2022-09-09T08:09:47;100611.97;;;22.37;54.47
71601;BME280;59446;52.192;4.628;2022-09-09T08:12:12;100608.09;;;22.41;54.42
71601;BME280;59446;52.192;4.628;2022-09-09T08:14:38;100608.81;;;22.43;54.38
71601;BME280;59446;52.192;4.628;2022-09-09T08:17:05;100608.44;;;22.48;54.20
71601;BME280;59446;52.192;4.628;2022-09-09T08:19:30;100608.44;;;22.48;54.01
71601;BME280;59446;52.192;4.628;2022-09-09T08:21:58;100615.31;;;22.50;54.29
71601;BME280;59446;52.192;4.628;2022-09-09T08:24:23;100610.13;;;22.49;54.28
71601;BME280;59446;52.192;4.628;2022-09-09T08:26:49;100611.56;;;22.53;54.35
71601;BME280;59446;52.192;4.628;2022-09-09T08:29:15;100608.78;;;22.54;54.11
71601;BME280;59446;52.192;4.628;2022-09-09T08:31:44;100608.53;;;22.57;54.22
71601;BME280;59446;52.192;4.628;2022-09-09T08:34:09;100610.22;;;22.58;54.41
71601;BME280;59446;52.192;4.628;2022-09-09T08:36:41;100604.63;;;22.61;54.22
71601;BME280;59446;52.192;4.628;2022-09-09T08:39:08;100611.63;;;22.62;54.10
71601;BME280;59446;52.192;4.628;2022-09-09T08:41:57;100606.47;;;22.61;54.32
71601;BME280;59446;52.192;4.628;2022-09-09T08:47:34;100614.78;;;22.67;53.98
71601;BME280;59446;52.192;4.628;2022-09-09T08:50:25;100615.22;;;22.72;54.17
71601;BME280;59446;52.192;4.628;2022-09-09T08:53:05;100619.69;;;22.72;53.98
71601;BME280;59446;52.192;4.628;2022-09-09T08:55:53;100613.28;;;22.74;54.05
71601;BME280;59446;52.192;4.628;2022-09-09T08:58:31;100620.53;;;22.72;53.94
71601;BME280;59446;52.192;4.628;2022-09-09T09:03:47;100623.78;;;22.76;53.95
71601;BME280;59446;52.192;4.628;2022-09-09T09:11:26;100628.06;;;22.67;54.22
71601;BME280;59446;52.192;4.628;2022-09-09T09:13:56;100630.63;;;22.79;53.71
71601;BME280;59446;52.192;4.628;2022-09-09T09:19:20;100627.66;;;22.72;53.99
71601;BME280;59446;52.192;4.628;2022-09-09T09:21:57;100631.16;;;22.72;53.98
71601;BME280;59446;52.192;4.628;2022-09-09T09:27:16;100631.41;;;22.69;54.18
71601;BME280;59446;52.192;4.628;2022-09-09T09:29:44;100637.97;;;22.86;53.62
71601;BME280;59446;52.192;4.628;2022-09-09T09:32:14;100640.94;;;22.72;53.88
71601;BME280;59446;52.192;4.628;2022-09-09T09:34:41;100632.72;;;22.75;53.92
71601;BME280;59446;52.192;4.628;2022-09-09T09:37:16;100630.25;;;22.83;53.56
71601;BME280;59446;52.192;4.628;2022-09-09T09:39:44;100625.19;;;22.80;53.89
71601;BME280;59446;52.192;4.628;2022-09-09T09:42:12;100624.34;;;22.80;53.75
71601;BME280;59446;52.192;4.628;2022-09-09T09:44:41;100626.03;;;22.81;53.85
71601;BME280;59446;52.192;4.628;2022-09-09T09:47:18;100625.78;;;22.84;53.58
71601;BME280;59446;52.192;4.628;2022-09-09T09:49:58;100618.78;;;22.83;53.45
71601;BME280;59446;52.192;4.628;2022-09-09T09:52:33;100619.47;;;22.96;53.65
71601;BME280;59446;52.192;4.628;2022-09-09T09:55:03;100620.66;;;23.03;53.01
71601;BME280;59446;52.192;4.628;2022-09-09T09:57:30;100620.13;;;23.09;53.03
71601;BME280;59446;52.192;4.628;2022-09-09T10:00:16;100617.25;;;23.12;52.91
71601;BME280;59446;52.192;4.628;2022-09-09T10:02:44;100614.50;;;23.02;53.10
71601;BME280;59446;52.192;4.628;2022-09-09T10:05:19;100612.00;;;22.90;53.56
71601;BME280;59446;52.192;4.628;2022-09-09T10:07:46;100615.38;;;22.92;53.44
71601;BME280;59446;52.192;4.628;2022-09-09T10:10:16;100617.56;;;22.87;53.71
71601;BME280;59446;52.192;4.628;2022-09-09T10:13:13;100624.09;;;22.83;53.87
71601;BME280;59446;52.192;4.628;2022-09-09T10:19:08;100609.84;;;22.84;53.59
71601;BME280;59446;52.192;4.628;2022-09-09T10:21:47;100609.00;;;22.83;53.84
71601;BME280;59446;52.192;4.628;2022-09-09T10:27:23;100612.84;;;22.90;53.60
71601;BME280;59446;52.192;4.628;2022-09-09T10:32:48;100608.00;;;22.95;53.49
71601;BME280;59446;52.192;4.628;2022-09-09T10:41:00;100611.28;;;22.88;53.96
71601;BME280;59446;52.192;4.628;2022-09-09T10:49:42;100605.06;;;22.78;53.72
71601;BME280;59446;52.192;4.628;2022-09-09T10:52:38;100612.56;;;22.72;53.90
71601;BME280;59446;52.192;4.628;2022-09-09T10:55:26;100608.56;;;22.78;53.75
71601;BME280;59446;52.192;4.628;2022-09-09T10:57:58;100615.41;;;22.81;53.67
71601;BME280;59446;52.192;4.628;2022-09-09T11:00:36;100610.13;;;22.81;53.74
71601;BME280;59446;52.192;4.628;2022-09-09T11:03:04;100605.13;;;22.87;53.64
71601;BME280;59446;52.192;4.628;2022-09-09T11:05:43;100610.19;;;22.90;53.54
71601;BME280;59446;52.192;4.628;2022-09-09T11:08:14;100603.78;;;22.93;53.93
71601;BME280;59446;52.192;4.628;2022-09-09T11:13:46;100601.84;;;22.95;53.69
71601;BME280;59446;52.192;4.628;2022-09-09T11:16:21;100604.84;;;23.01;53.36
71601;BME280;59446;52.192;4.628;2022-09-09T11:18:48;100603.09;;;23.12;53.25
71601;BME280;59446;52.192;4.628;2022-09-09T11:21:28;100605.75;;;23.12;53.38
71601;BME280;59446;52.192;4.628;2022-09-09T11:24:02;100609.75;;;23.06;53.41
71601;BME280;59446;52.192;4.628;2022-09-09T11:26:41;100605.16;;;23.08;53.55
71601;BME280;59446;52.192;4.628;2022-09-09T11:29:21;100611.91;;;23.12;53.37
71601;BME280;59446;52.192;4.628;2022-09-09T11:40:31;100609.09;;;23.34;53.20
71601;BME280;59446;52.192;4.628;2022-09-09T11:43:20;100616.13;;;23.36;53.24
71601;BME280;59446;52.192;4.628;2022-09-09T11:45:53;100606.69;;;23.31;53.01
71601;BME280;59446;52.192;4.628;2022-09-09T11:48:26;100609.22;;;23.33;53.49
71601;BME280;59446;52.192;4.628;2022-09-09T11:51:01;100609.97;;;23.35;53.03
71601;BME280;59446;52.192;4.628;2022-09-09T11:53:28;100614.16;;;23.38;52.94
71601;BME280;59446;52.192;4.628;2022-09-09T11:56:07;100606.50;;;23.44;53.16
71601;BME280;59446;52.192;4.628;2022-09-09T11:58:53;100607.31;;;23.35;53.25
71601;BME280;59446;52.192;4.628;2022-09-09T12:01:50;100604.44;;;23.27;53.35
71601;BME280;59446;52.192;4.628;2022-09-09T12:07:00;100602.31;;;23.21;53.77
71601;BME280;59446;52.192;4.628;2022-09-09T12:09:33;100603.28;;;23.20;53.82
71601;BME280;59446;52.192;4.628;2022-09-09T12:12:28;100607.06;;;23.17;54.09
71601;BME280;59446;52.192;4.628;2022-09-09T12:17:42;100609.00;;;23.15;54.08
71601;BME280;59446;52.192;4.628;2022-09-09T12:23:13;100607.56;;;23.11;54.19
71601;BME280;59446;52.192;4.628;2022-09-09T12:25:55;100614.56;;;23.12;53.94
71601;BME280;59446;52.192;4.628;2022-09-09T12:31:11;100615.50;;;23.32;53.32
71601;BME280;59446;52.192;4.628;2022-09-09T12:33:43;100611.44;;;23.28;54.05
71601;BME280;59446;52.192;4.628;2022-09-09T12:36:36;100611.56;;;23.26;53.82
71601;BME280;59446;52.192;4.628;2022-09-09T12:39:18;100612.69;;;23.24;53.91
71601;BME280;59446;52.192;4.628;2022-09-09T12:41:54;100612.41;;;23.27;53.83
71601;BME280;59446;52.192;4.628;2022-09-09T12:44:22;100616.63;;;23.29;53.85
71601;BME280;59446;52.192;4.628;2022-09-09T12:46:48;100621.22;;;23.27;53.69
71601;BME280;59446;52.192;4.628;2022-09-09T12:49:37;100615.31;;;23.45;53.37
71601;BME280;59446;52.192;4.628;2022-09-09T12:52:12;100626.66;;;23.47;53.40
71601;BME280;59446;52.192;4.628;2022-09-09T12:54:44;100628.91;;;23.51;53.50
71601;BME280;59446;52.192;4.628;2022-09-09T12:57:12;100627.94;;;23.52;53.51
71601;BME280;59446;52.192;4.628;2022-09-09T12:59:40;100630.41;;;23.44;53.69
71601;BME280;59446;52.192;4.628;2022-09-09T13:02:26;100630.13;;;23.38;53.81
71601;BME280;59446;52.192;4.628;2022-09-09T13:04:52;100623.56;;;23.42;53.30
71601;BME280;59446;52.192;4.628;2022-09-09T13:07:19;100621.16;;;23.39;53.78
71601;BME280;59446;52.192;4.628;2022-09-09T13:09:46;100622.59;;;23.43;53.43
71601;BME280;59446;52.192;4.628;2022-09-09T13:12:18;100618.81;;;23.45;53.93
71601;BME280;59446;52.192;4.628;2022-09-09T13:14:47;100621.59;;;23.44;53.48
71601;BME280;59446;52.192;4.628;2022-09-09T13:17:21;100620.63;;;23.45;53.29
71601;BME280;59446;52.192;4.628;2022-09-09T13:19:48;100623.28;;;23.45;53.77
71601;BME280;59446;52.192;4.628;2022-09-09T13:22:30;100634.09;;;23.53;53.43
71601;BME280;59446;52.192;4.628;2022-09-09T13:25:00;100628.75;;;23.43;53.87
71601;BME280;59446;52.192;4.628;2022-09-09T13:27:58;100623.41;;;23.43;53.88
71601;BME280;59446;52.192;4.628;2022-09-09T13:35:47;100622.34;;;23.55;53.07
71601;BME280;59446;52.192;4.628;2022-09-09T13:38:15;100625.84;;;23.56;53.27
71601;BME280;59446;52.192;4.628;2022-09-09T13:40:52;100622.19;;;23.47;53.78
71601;BME280;59446;52.192;4.628;2022-09-09T13:43:21;100631.16;;;23.56;53.63
71601;BME280;59446;52.192;4.628;2022-09-09T13:46:06;100631.06;;;23.57;53.76
71601;BME280;59446;52.192;4.628;2022-09-09T13:48:58;100614.56;;;23.63;53.30
71601;BME280;59446;52.192;4.628;2022-09-09T13:51:48;100626.69;;;23.56;53.78
71601;BME280;59446;52.192;4.628;2022-09-09T13:54:17;100618.91;;;23.64;53.42
71601;BME280;59446;52.192;4.628;2022-09-09T13:56:43;100614.00;;;23.60;53.74
71601;BME280;59446;52.192;4.628;2022-09-09T13:59:15;100619.56;;;23.57;53.81
71601;BME280;59446;52.192;4.628;2022-09-09T14:01:41;100621.50;;;23.55;53.98
71601;BME280;59446;52.192;4.628;2022-09-09T14:04:07;100620.53;;;23.56;53.83
71601;BME280;59446;52.192;4.628;2022-09-09T14:06:34;100622.63;;;23.52;54.14
71601;BME280;59446;52.192;4.628;2022-09-09T14:09:04;100623.59;;;23.51;54.10
71601;BME280;59446;52.192;4.628;2022-09-09T14:11:29;100624.69;;;23.49;53.96
71601;BME280;59446;52.192;4.628;2022-09-09T14:13:54;100617.97;;;23.45;54.24
71601;BME280;59446;52.192;4.628;2022-09-09T14:16:20;100626.22;;;23.42;54.00
71601;BME280;59446;52.192;4.628;2022-09-09T14:18:47;100628.47;;;23.46;53.93
71601;BME280;59446;52.192;4.628;2022-09-09T14:21:13;100616.31;;;23.53;53.69
71601;BME280;59446;52.192;4.628;2022-09-09T14:23:39;100618.47;;;23.59;53.90
71601;BME280;59446;52.192;4.628;2022-09-09T14:26:05;100617.03;;;23.55;53.75
71601;BME280;59446;52.192;4.628;2022-09-09T14:28:31;100617.88;;;23.56;53.83
71601;BME280;59446;52.192;4.628;2022-09-09T14:30:59;100627.22;;;23.50;53.87
71601;BME280;59446;52.192;4.628;2022-09-09T14:33:26;100638.84;;;23.49;54.19
71601;BME280;59446;52.192;4.628;2022-09-09T14:36:10;100639.41;;;23.53;54.20
71601;BME280;59446;52.192;4.628;2022-09-09T14:38:37;100646.81;;;23.49;54.39
71601;BME280;59446;52.192;4.628;2022-09-09T14:41:09;100646.94;;;23.48;54.44
71601;BME280;59446;52.192;4.628;2022-09-09T14:43:37;100638.44;;;23.54;53.70
71601;BME280;59446;52.192;4.628;2022-09-09T14:46:10;100639.34;;;23.64;54.00
71601;BME280;59446;52.192;4.628;2022-09-09T14:48:36;100642.06;;;23.74;53.81